sensor_id;sensor_type;location;lat;lon;timestamp;pressure;altitude;pressure_sealevel;temperature;humidity
75681;BME280;64294;49.176;16.626;2023-03-01T00:01:32;100397.09;;;-3.03;84.61
75681;BME280;64294;49.176;16.626;2023-03-01T00:03:58;100396.00;;;-3.10;85.18
75681;BME280;64294;49.176;16.626;2023-03-01T00:06:25;100398.75;;;-3.10;85.26
75681;BME280;64294;49.176;16.626;2023-03-01T00:08:52;100402.34;;;-3.13;85.40
75681;BME280;64294;49.176;16.626;2023-03-01T00:11:23;100393.31;;;-3.13;85.98
75681;BME280;64294;49.176;16.626;2023-03-01T00:13:51;100403.50;;;-3.10;85.89
75681;BME280;64294;49.176;16.626;2023-03-01T00:16:22;100395.72;;;-3.15;85.80
75681;BME280;64294;49.176;16.626;2023-03-01T00:18:48;100394.88;;;-3.12;86.11
75681;BME280;64294;49.176;16.626;2023-03-01T00:21:14;100394.75;;;-3.05;86.12
75681;BME280;64294;49.176;16.626;2023-03-01T00:23:39;100389.03;;;-3.14;86.09
75681;BME280;64294;49.176;16.626;2023-03-01T00:26:07;100393.44;;;-3.20;85.65
75681;BME280;64294;49.176;16.626;2023-03-01T00:28:33;100390.38;;;-3.26;86.51
75681;BME280;64294;49.176;16.626;2023-03-01T00:31:06;100387.38;;;-3.35;87.11
75681;BME280;64294;49.176;16.626;2023-03-01T00:33:32;100384.31;;;-3.41;87.27
75681;BME280;64294;49.176;16.626;2023-03-01T00:35:58;100381.63;;;-3.44;87.88
75681;BME280;64294;49.176;16.626;2023-03-01T00:38:27;100371.53;;;-3.51;88.00
75681;BME280;64294;49.176;16.626;2023-03-01T00:40:52;100373.44;;;-3.48;87.84
75681;BME280;64294;49.176;16.626;2023-03-01T00:43:18;100377.63;;;-3.40;88.47
75681;BME280;64294;49.176;16.626;2023-03-01T00:45:44;100378.75;;;-3.37;87.81
75681;BME280;64294;49.176;16.626;2023-03-01T00:48:12;100373.03;;;-3.46;88.32
75681;BME280;64294;49.176;16.626;2023-03-01T00:50:38;100364.84;;;-3.50;88.31
75681;BME280;64294;49.176;16.626;2023-03-01T00:53:03;100359.78;;;-3.55;88.70
75681;BME280;64294;49.176;16.626;2023-03-01T00:55:30;100360.53;;;-3.51;87.93
75681;BME280;64294;49.176;16.626;2023-03-01T00:57:55;100359.22;;;-3.43;88.07
75681;BME280;64294;49.176;16.626;2023-03-01T01:00:24;100359.66;;;-3.44;88.09
75681;BME280;64294;49.176;16.626;2023-03-01T01:02:53;100358.94;;;-3.48;88.54
75681;BME280;64294;49.176;16.626;2023-03-01T01:05:19;100356.06;;;-3.41;87.79
75681;BME280;64294;49.176;16.626;2023-03-01T01:07:46;100353.72;;;-3.43;87.81
75681;BME280;64294;49.176;16.626;2023-03-01T01:10:11;100350.63;;;-3.45;88.01
75681;BME280;64294;49.176;16.626;2023-03-01T01:12:43;100347.53;;;-3.47;87.24
75681;BME280;64294;49.176;16.626;2023-03-01T01:15:08;100352.31;;;-3.51;88.41
75681;BME280;64294;49.176;16.626;2023-03-01T01:17:40;100354.69;;;-3.53;88.65
75681;BME280;64294;49.176;16.626;2023-03-01T01:20:06;100348.28;;;-3.46;88.51
75681;BME280;64294;49.176;16.626;2023-03-01T01:22:38;100347.56;;;-3.50;88.72
75681;BME280;64294;49.176;16.626;2023-03-01T01:25:04;100349.59;;;-3.54;89.28
75681;BME280;64294;49.176;16.626;2023-03-01T01:27:32;100342.03;;;-3.47;88.72
75681;BME280;64294;49.176;16.626;2023-03-01T01:29:58;100345.47;;;-3.43;88.52
75681;BME280;64294;49.176;16.626;2023-03-01T01:32:23;100340.97;;;-3.56;88.79
75681;BME280;64294;49.176;16.626;2023-03-01T01:34:49;100333.56;;;-3.59;88.76
75681;BME280;64294;49.176;16.626;2023-03-01T01:37:14;100330.53;;;-3.65;89.06
75681;BME280;64294;49.176;16.626;2023-03-01T01:39:39;100331.72;;;-3.66;89.29
75681;BME280;64294;49.176;16.626;2023-03-01T01:42:05;100325.88;;;-3.68;90.07
75681;BME280;64294;49.176;16.626;2023-03-01T01:44:32;100331.31;;;-3.64;89.20
75681;BME280;64294;49.176;16.626;2023-03-01T01:49:33;100319.97;;;-3.67;88.91
75681;BME280;64294;49.176;16.626;2023-03-01T01:52:06;100319.41;;;-3.58;89.15
75681;BME280;64294;49.176;16.626;2023-03-01T01:57:14;100325.50;;;-3.70;89.16
75681;BME280;64294;49.176;16.626;2023-03-01T01:59:43;100320.03;;;-3.70;89.59
75681;BME280;64294;49.176;16.626;2023-03-01T02:02:11;100319.63;;;-3.72;90.53
75681;BME280;64294;49.176;16.626;2023-03-01T02:04:37;100311.94;;;-3.81;89.56
75681;BME280;64294;49.176;16.626;2023-03-01T02:07:21;100319.44;;;-3.85;90.36
75681;BME280;64294;49.176;16.626;2023-03-01T02:09:49;100311.50;;;-3.79;90.14
75681;BME280;64294;49.176;16.626;2023-03-01T02:12:21;100316.75;;;-3.88;90.40
75681;BME280;64294;49.176;16.626;2023-03-01T02:14:50;100320.31;;;-3.91;90.53
75681;BME280;64294;49.176;16.626;2023-03-01T02:17:17;100315.38;;;-3.77;90.82
75681;BME280;64294;49.176;16.626;2023-03-01T02:21:07;100306.13;;;-3.86;90.91
75681;BME280;64294;49.176;16.626;2023-03-01T02:23:01;100305.53;;;-3.74;90.26
75681;BME280;64294;49.176;16.626;2023-03-01T02:30:45;100322.84;;;-3.77;90.45
75681;BME280;64294;49.176;16.626;2023-03-01T02:33:36;100310.94;;;-3.67;89.80
75681;BME280;64294;49.176;16.626;2023-03-01T02:36:24;100303.91;;;-3.68;89.25
75681;BME280;64294;49.176;16.626;2023-03-01T02:38:58;100305.69;;;-3.58;88.78
75681;BME280;64294;49.176;16.626;2023-03-01T02:41:28;100310.41;;;-3.58;88.19
75681;BME280;64294;49.176;16.626;2023-03-01T02:43:56;100310.66;;;-3.49;88.41
75681;BME280;64294;49.176;16.626;2023-03-01T02:46:24;100313.50;;;-3.56;88.41
75681;BME280;64294;49.176;16.626;2023-03-01T02:48:52;100310.72;;;-3.53;88.04
75681;BME280;64294;49.176;16.626;2023-03-01T02:51:27;100316.59;;;-3.54;88.32
75681;BME280;64294;49.176;16.626;2023-03-01T02:54:10;100315.03;;;-3.52;88.07
75681;BME280;64294;49.176;16.626;2023-03-01T02:56:38;100324.84;;;-3.54;87.64
75681;BME280;64294;49.176;16.626;2023-03-01T02:59:07;100318.59;;;-3.55;88.70
75681;BME280;64294;49.176;16.626;2023-03-01T03:01:36;100320.91;;;-3.53;88.41
75681;BME280;64294;49.176;16.626;2023-03-01T03:04:11;100315.47;;;-3.57;88.04
75681;BME280;64294;49.176;16.626;2023-03-01T03:06:37;100321.28;;;-3.51;87.87
75681;BME280;64294;49.176;16.626;2023-03-01T03:09:05;100323.78;;;-3.37;87.35
75681;BME280;64294;49.176;16.626;2023-03-01T03:11:31;100328.69;;;-3.48;87.27
75681;BME280;64294;49.176;16.626;2023-03-01T03:13:57;100328.84;;;-3.59;88.02
75681;BME280;64294;49.176;16.626;2023-03-01T03:16:23;100329.47;;;-3.48;88.24
75681;BME280;64294;49.176;16.626;2023-03-01T03:18:49;100325.88;;;-3.45;87.67
75681;BME280;64294;49.176;16.626;2023-03-01T03:21:15;100330.97;;;-3.43;87.41
75681;BME280;64294;49.176;16.626;2023-03-01T03:23:41;100322.78;;;-3.47;87.78
75681;BME280;64294;49.176;16.626;2023-03-01T03:26:07;100329.72;;;-3.39;87.07
75681;BME280;64294;49.176;16.626;2023-03-01T03:28:36;100328.75;;;-3.52;86.98
75681;BME280;64294;49.176;16.626;2023-03-01T03:31:08;100317.72;;;-3.48;87.63
75681;BME280;64294;49.176;16.626;2023-03-01T03:33:33;100325.28;;;-3.56;87.74
75681;BME280;64294;49.176;16.626;2023-03-01T03:35:59;100328.84;;;-3.59;87.88
75681;BME280;64294;49.176;16.626;2023-03-01T03:38:24;100325.97;;;-3.75;88.55
75681;BME280;64294;49.176;16.626;2023-03-01T03:41:06;100330.38;;;-3.81;89.95
75681;BME280;64294;49.176;16.626;2023-03-01T03:43:35;100322.25;;;-3.88;90.50
75681;BME280;64294;49.176;16.626;2023-03-01T03:46:02;100322.34;;;-3.96;91.09
75681;BME280;64294;49.176;16.626;2023-03-01T03:48:35;100330.72;;;-4.06;91.61
75681;BME280;64294;49.176;16.626;2023-03-01T03:51:01;100326.09;;;-4.13;91.41
75681;BME280;64294;49.176;16.626;2023-03-01T03:53:28;100331.22;;;-4.15;92.40
75681;BME280;64294;49.176;16.626;2023-03-01T03:55:54;100333.66;;;-4.20;92.96
75681;BME280;64294;49.176;16.626;2023-03-01T03:58:21;100328.28;;;-4.28;93.08
75681;BME280;64294;49.176;16.626;2023-03-01T04:00:50;100336.50;;;-4.28;93.52
75681;BME280;64294;49.176;16.626;2023-03-01T04:03:18;100332.28;;;-4.36;93.84
75681;BME280;64294;49.176;16.626;2023-03-01T04:05:46;100332.28;;;-4.36;94.23
75681;BME280;64294;49.176;16.626;2023-03-01T04:08:14;100327.22;;;-4.37;94.09
75681;BME280;64294;49.176;16.626;2023-03-01T04:10:43;100327.66;;;-4.42;94.47
75681;BME280;64294;49.176;16.626;2023-03-01T04:13:13;100313.66;;;-4.51;94.63
75681;BME280;64294;49.176;16.626;2023-03-01T04:15:39;100317.94;;;-4.50;94.90
75681;BME280;64294;49.176;16.626;2023-03-01T04:18:06;100312.84;;;-4.48;95.37
75681;BME280;64294;49.176;16.626;2023-03-01T04:20:35;100324.25;;;-4.53;95.73
75681;BME280;64294;49.176;16.626;2023-03-01T04:23:08;100323.16;;;-4.60;94.96
75681;BME280;64294;49.176;16.626;2023-03-01T04:25:56;100323.16;;;-4.60;95.76
75681;BME280;64294;49.176;16.626;2023-03-01T04:28:28;100316.50;;;-4.59;96.01
75681;BME280;64294;49.176;16.626;2023-03-01T04:30:55;100317.63;;;-4.56;95.60
75681;BME280;64294;49.176;16.626;2023-03-01T04:33:22;100322.34;;;-4.57;95.59
75681;BME280;64294;49.176;16.626;2023-03-01T04:35:48;100307.81;;;-4.53;96.34
75681;BME280;64294;49.176;16.626;2023-03-01T04:38:22;100310.88;;;-4.48;95.85
75681;BME280;64294;49.176;16.626;2023-03-01T04:40:47;100303.69;;;-4.38;95.70
75681;BME280;64294;49.176;16.626;2023-03-01T04:43:13;100302.41;;;-4.30;95.63
75681;BME280;64294;49.176;16.626;2023-03-01T04:45:40;100308.19;;;-4.21;94.60
75681;BME280;64294;49.176;16.626;2023-03-01T04:48:05;100305.69;;;-4.12;93.25
75681;BME280;64294;49.176;16.626;2023-03-01T04:50:31;100298.72;;;-3.89;92.70
75681;BME280;64294;49.176;16.626;2023-03-01T04:52:56;100296.28;;;-3.84;92.17
75681;BME280;64294;49.176;16.626;2023-03-01T04:55:26;100296.72;;;-3.62;90.26
75681;BME280;64294;49.176;16.626;2023-03-01T04:57:52;100303.16;;;-3.72;91.12
75681;BME280;64294;49.176;16.626;2023-03-01T05:00:22;100296.72;;;-3.62;90.46
75681;BME280;64294;49.176;16.626;2023-03-01T05:02:56;100299.34;;;-3.55;89.66
75681;BME280;64294;49.176;16.626;2023-03-01T05:05:27;100302.00;;;-3.48;89.07
75681;BME280;64294;49.176;16.626;2023-03-01T05:07:58;100298.81;;;-3.46;88.77
75681;BME280;64294;49.176;16.626;2023-03-01T05:10:26;100307.38;;;-3.41;88.16
75681;BME280;64294;49.176;16.626;2023-03-01T05:12:51;100299.47;;;-3.39;88.58
75681;BME280;64294;49.176;16.626;2023-03-01T05:15:21;100287.63;;;-3.36;88.22
75681;BME280;64294;49.176;16.626;2023-03-01T05:17:54;100278.22;;;-3.34;88.12
75681;BME280;64294;49.176;16.626;2023-03-01T05:20:20;100275.97;;;-3.20;87.12
75681;BME280;64294;49.176;16.626;2023-03-01T05:22:53;100276.81;;;-3.23;87.23
75681;BME280;64294;49.176;16.626;2023-03-01T05:25:20;100287.28;;;-3.14;86.58
75681;BME280;64294;49.176;16.626;2023-03-01T05:27:46;100278.91;;;-3.07;85.85
75681;BME280;64294;49.176;16.626;2023-03-01T05:30:12;100276.34;;;-2.98;85.15
75681;BME280;64294;49.176;16.626;2023-03-01T05:32:46;100276.06;;;-3.03;85.38
75681;BME280;64294;49.176;16.626;2023-03-01T05:35:13;100270.22;;;-3.06;85.91
75681;BME280;64294;49.176;16.626;2023-03-01T05:37:47;100278.91;;;-3.07;86.71
75681;BME280;64294;49.176;16.626;2023-03-01T05:40:22;100271.50;;;-3.10;86.77
75681;BME280;64294;49.176;16.626;2023-03-01T05:42:52;100272.56;;;-3.04;86.10
75681;BME280;64294;49.176;16.626;2023-03-01T05:45:18;100275.72;;;-3.06;86.27
75681;BME280;64294;49.176;16.626;2023-03-01T05:47:46;100273.31;;;-3.03;86.05
75681;BME280;64294;49.176;16.626;2023-03-01T05:50:14;100277.63;;;-3.02;85.95
75681;BME280;64294;49.176;16.626;2023-03-01T05:52:58;100286.66;;;-3.02;85.65
75681;BME280;64294;49.176;16.626;2023-03-01T05:55:25;100286.13;;;-2.93;84.89
75681;BME280;64294;49.176;16.626;2023-03-01T05:57:51;100292.75;;;-2.91;84.95
75681;BME280;64294;49.176;16.626;2023-03-01T06:00:18;100281.31;;;-2.89;84.19
75681;BME280;64294;49.176;16.626;2023-03-01T06:02:44;100287.44;;;-2.82;84.17
75681;BME280;64294;49.176;16.626;2023-03-01T06:05:13;100286.13;;;-2.73;83.80
75681;BME280;64294;49.176;16.626;2023-03-01T06:07:42;100295.09;;;-2.69;84.48
75681;BME280;64294;49.176;16.626;2023-03-01T06:10:08;100291.34;;;-2.59;84.34
75681;BME280;64294;49.176;16.626;2023-03-01T06:12:39;100297.97;;;-2.37;83.57
75681;BME280;64294;49.176;16.626;2023-03-01T06:15:06;100301.72;;;-1.75;81.15
75681;BME280;64294;49.176;16.626;2023-03-01T06:17:35;100287.50;;;-1.41;78.82
75681;BME280;64294;49.176;16.626;2023-03-01T06:20:05;100290.50;;;-1.19;76.95
75681;BME280;64294;49.176;16.626;2023-03-01T06:22:35;100296.31;;;-1.01;76.60
75681;BME280;64294;49.176;16.626;2023-03-01T06:25:00;100288.94;;;-0.20;74.43
75681;BME280;64294;49.176;16.626;2023-03-01T06:27:26;100291.25;;;1.05;70.27
75681;BME280;64294;49.176;16.626;2023-03-01T06:29:52;100301.97;;;2.21;65.17
75681;BME280;64294;49.176;16.626;2023-03-01T06:32:17;100301.38;;;3.67;61.41
75681;BME280;64294;49.176;16.626;2023-03-01T06:34:43;100292.19;;;4.93;56.31
75681;BME280;64294;49.176;16.626;2023-03-01T06:37:09;100292.16;;;4.45;52.48
75681;BME280;64294;49.176;16.626;2023-03-01T06:39:34;100289.22;;;5.21;52.14
75681;BME280;64294;49.176;16.626;2023-03-01T06:42:00;100279.72;;;7.06;45.84
75681;BME280;64294;49.176;16.626;2023-03-01T06:44:26;100285.81;;;7.51;44.08
75681;BME280;64294;49.176;16.626;2023-03-01T06:46:52;100272.94;;;9.02;40.69
75681;BME280;64294;49.176;16.626;2023-03-01T06:49:17;100275.72;;;10.12;38.40
75681;BME280;64294;49.176;16.626;2023-03-01T06:51:44;100288.25;;;11.66;36.30
75681;BME280;64294;49.176;16.626;2023-03-01T06:54:10;100295.25;;;12.55;33.38
75681;BME280;64294;49.176;16.626;2023-03-01T06:56:35;100302.25;;;14.10;30.57
75681;BME280;64294;49.176;16.626;2023-03-01T06:59:04;100305.00;;;13.27;32.04
75681;BME280;64294;49.176;16.626;2023-03-01T07:01:30;100304.56;;;13.42;31.04
75681;BME280;64294;49.176;16.626;2023-03-01T07:03:59;100303.69;;;15.41;29.32
75681;BME280;64294;49.176;16.626;2023-03-01T07:06:24;100302.91;;;15.67;28.30
75681;BME280;64294;49.176;16.626;2023-03-01T07:08:50;100300.47;;;16.26;27.29
75681;BME280;64294;49.176;16.626;2023-03-01T07:11:15;100306.69;;;16.45;26.14
75681;BME280;64294;49.176;16.626;2023-03-01T07:13:41;100306.16;;;17.83;25.45
75681;BME280;64294;49.176;16.626;2023-03-01T07:16:07;100295.00;;;17.85;24.77
75681;BME280;64294;49.176;16.626;2023-03-01T07:18:32;100301.22;;;17.76;23.99
75681;BME280;64294;49.176;16.626;2023-03-01T07:20:58;100302.09;;;17.20;25.46
75681;BME280;64294;49.176;16.626;2023-03-01T07:23:23;100303.59;;;17.57;24.41
75681;BME280;64294;49.176;16.626;2023-03-01T07:25:55;100304.88;;;18.00;23.03
75681;BME280;64294;49.176;16.626;2023-03-01T07:28:22;100299.84;;;19.30;21.54
75681;BME280;64294;49.176;16.626;2023-03-01T07:30:48;100299.84;;;19.30;21.38
75681;BME280;64294;49.176;16.626;2023-03-01T07:33:13;100306.91;;;19.77;21.09
75681;BME280;64294;49.176;16.626;2023-03-01T07:35:38;100304.66;;;21.34;19.63
75681;BME280;64294;49.176;16.626;2023-03-01T07:38:04;100314.38;;;22.56;18.58
75681;BME280;64294;49.176;16.626;2023-03-01T07:40:32;100311.06;;;19.28;20.79
75681;BME280;64294;49.176;16.626;2023-03-01T07:42:59;100303.97;;;19.59;20.41
75681;BME280;64294;49.176;16.626;2023-03-01T07:45:25;100306.34;;;19.78;20.75
75681;BME280;64294;49.176;16.626;2023-03-01T07:47:51;100309.59;;;21.51;18.84
75681;BME280;64294;49.176;16.626;2023-03-01T07:50:17;100305.91;;;21.41;18.62
75681;BME280;64294;49.176;16.626;2023-03-01T07:52:45;100304.41;;;21.05;18.71
75681;BME280;64294;49.176;16.626;2023-03-01T07:55:11;100309.97;;;21.82;18.38
75681;BME280;64294;49.176;16.626;2023-03-01T07:57:37;100304.25;;;22.09;18.34
75681;BME280;64294;49.176;16.626;2023-03-01T08:00:03;100310.41;;;20.75;19.43
75681;BME280;64294;49.176;16.626;2023-03-01T08:02:28;100312.81;;;21.38;18.41
75681;BME280;64294;49.176;16.626;2023-03-01T08:04:54;100307.72;;;20.02;20.19
75681;BME280;64294;49.176;16.626;2023-03-01T08:07:19;100301.06;;;20.00;20.52
75681;BME280;64294;49.176;16.626;2023-03-01T08:09:45;100294.56;;;19.74;20.50
75681;BME280;64294;49.176;16.626;2023-03-01T08:12:10;100291.47;;;20.37;20.01
75681;BME280;64294;49.176;16.626;2023-03-01T08:14:36;100302.53;;;21.52;18.91
75681;BME280;64294;49.176;16.626;2023-03-01T08:17:01;100296.06;;;21.17;18.92
75681;BME280;64294;49.176;16.626;2023-03-01T08:19:28;100302.72;;;22.35;18.14
75681;BME280;64294;49.176;16.626;2023-03-01T08:21:54;100284.66;;;24.47;17.06
75681;BME280;64294;49.176;16.626;2023-03-01T08:24:19;100285.09;;;23.62;16.85
75681;BME280;64294;49.176;16.626;2023-03-01T08:26:45;100289.16;;;23.01;17.54
75681;BME280;64294;49.176;16.626;2023-03-01T08:29:10;100287.06;;;21.21;18.56
75681;BME280;64294;49.176;16.626;2023-03-01T08:31:38;100279.81;;;23.10;17.57
75681;BME280;64294;49.176;16.626;2023-03-01T08:34:10;100285.06;;;23.23;17.08
75681;BME280;64294;49.176;16.626;2023-03-01T08:36:38;100278.53;;;24.31;16.47
75681;BME280;64294;49.176;16.626;2023-03-01T08:39:09;100283.25;;;25.55;15.95
75681;BME280;64294;49.176;16.626;2023-03-01T08:41:35;100279.25;;;22.65;17.18
75681;BME280;64294;49.176;16.626;2023-03-01T08:44:00;100276.59;;;24.14;16.24
75681;BME280;64294;49.176;16.626;2023-03-01T08:46:32;100278.78;;;22.50;17.61
75681;BME280;64294;49.176;16.626;2023-03-01T08:48:57;100269.69;;;22.90;17.63
75681;BME280;64294;49.176;16.626;2023-03-01T08:51:24;100276.91;;;20.93;19.03
75681;BME280;64294;49.176;16.626;2023-03-01T08:53:50;100273.63;;;19.79;19.95
75681;BME280;64294;49.176;16.626;2023-03-01T08:56:16;100273.47;;;17.62;22.48
75681;BME280;64294;49.176;16.626;2023-03-01T08:58:48;100265.03;;;15.43;24.70
75681;BME280;64294;49.176;16.626;2023-03-01T09:01:16;100265.94;;;14.46;26.61
75681;BME280;64294;49.176;16.626;2023-03-01T09:03:46;100265.63;;;14.04;26.77
75681;BME280;64294;49.176;16.626;2023-03-01T09:06:11;100260.59;;;14.42;26.43
75681;BME280;64294;49.176;16.626;2023-03-01T09:08:43;100262.72;;;13.59;28.27
75681;BME280;64294;49.176;16.626;2023-03-01T09:11:13;100259.16;;;14.36;26.87
75681;BME280;64294;49.176;16.626;2023-03-01T09:13:38;100253.88;;;14.00;27.33
75681;BME280;64294;49.176;16.626;2023-03-01T09:16:06;100252.03;;;14.61;26.96
75681;BME280;64294;49.176;16.626;2023-03-01T09:18:35;100252.75;;;15.28;25.61
75681;BME280;64294;49.176;16.626;2023-03-01T09:21:07;100249.31;;;14.82;25.87
75681;BME280;64294;49.176;16.626;2023-03-01T09:23:37;100238.78;;;14.56;27.18
75681;BME280;64294;49.176;16.626;2023-03-01T09:26:05;100242.34;;;13.98;28.05
75681;BME280;64294;49.176;16.626;2023-03-01T09:28:33;100248.47;;;13.83;28.52
75681;BME280;64294;49.176;16.626;2023-03-01T09:31:04;100241.88;;;12.81;30.12
75681;BME280;64294;49.176;16.626;2023-03-01T09:33:32;100239.41;;;13.40;28.95
75681;BME280;64294;49.176;16.626;2023-03-01T09:36:04;100245.47;;;11.73;31.71
75681;BME280;64294;49.176;16.626;2023-03-01T09:38:31;100237.81;;;11.27;32.90
75681;BME280;64294;49.176;16.626;2023-03-01T09:40:56;100242.16;;;10.70;33.46
75681;BME280;64294;49.176;16.626;2023-03-01T09:43:44;100234.03;;;10.55;33.89
75681;BME280;64294;49.176;16.626;2023-03-01T09:46:14;100232.81;;;9.83;33.70
75681;BME280;64294;49.176;16.626;2023-03-01T09:48:50;100233.06;;;9.63;35.23
75681;BME280;64294;49.176;16.626;2023-03-01T09:51:37;100235.84;;;8.70;37.43
75681;BME280;64294;49.176;16.626;2023-03-01T09:54:04;100227.56;;;9.03;38.19
75681;BME280;64294;49.176;16.626;2023-03-01T09:56:37;100230.94;;;9.24;38.43
75681;BME280;64294;49.176;16.626;2023-03-01T10:02:05;100217.44;;;9.17;37.96
75681;BME280;64294;49.176;16.626;2023-03-01T10:04:45;100217.19;;;9.21;37.90
75681;BME280;64294;49.176;16.626;2023-03-01T10:09:43;100219.75;;;9.47;37.22
75681;BME280;64294;49.176;16.626;2023-03-01T10:12:13;100209.56;;;9.44;37.62
75681;BME280;64294;49.176;16.626;2023-03-01T10:14:44;100209.56;;;9.32;37.65
75681;BME280;64294;49.176;16.626;2023-03-01T10:20:24;100207.53;;;9.50;37.69
75681;BME280;64294;49.176;16.626;2023-03-01T10:22:51;100212.38;;;9.44;37.82
75681;BME280;64294;49.176;16.626;2023-03-01T10:30:58;100197.66;;;8.30;39.27
75681;BME280;64294;49.176;16.626;2023-03-01T10:33:30;100188.47;;;8.24;39.22
75681;BME280;64294;49.176;16.626;2023-03-01T10:35:57;100190.06;;;8.36;39.46
75681;BME280;64294;49.176;16.626;2023-03-01T10:38:22;100192.78;;;8.67;38.31
75681;BME280;64294;49.176;16.626;2023-03-01T10:40:54;100179.47;;;8.08;39.32
75681;BME280;64294;49.176;16.626;2023-03-01T10:43:22;100187.59;;;8.06;39.66
75681;BME280;64294;49.176;16.626;2023-03-01T10:45:48;100180.00;;;8.12;40.18
75681;BME280;64294;49.176;16.626;2023-03-01T10:48:26;100168.69;;;7.96;40.67
75681;BME280;64294;49.176;16.626;2023-03-01T10:56:09;100159.34;;;7.67;41.82
75681;BME280;64294;49.176;16.626;2023-03-01T10:58:37;100157.63;;;7.44;42.95
75681;BME280;64294;49.176;16.626;2023-03-01T11:01:25;100157.38;;;7.47;42.68
75681;BME280;64294;49.176;16.626;2023-03-01T11:06:33;100156.56;;;8.10;42.10
75681;BME280;64294;49.176;16.626;2023-03-01T11:09:20;100151.41;;;8.40;40.54
75681;BME280;64294;49.176;16.626;2023-03-01T11:11:52;100149.66;;;8.48;40.40
75681;BME280;64294;49.176;16.626;2023-03-01T11:16:57;100148.00;;;7.50;41.92
75681;BME280;64294;49.176;16.626;2023-03-01T11:19:26;100153.56;;;7.45;42.24
75681;BME280;64294;49.176;16.626;2023-03-01T11:22:02;100144.22;;;7.90;41.72
75681;BME280;64294;49.176;16.626;2023-03-01T11:24:41;100152.34;;;8.31;41.69
75681;BME280;64294;49.176;16.626;2023-03-01T11:27:32;100135.22;;;7.75;42.01
75681;BME280;64294;49.176;16.626;2023-03-01T11:30:24;100127.78;;;7.67;42.80
75681;BME280;64294;49.176;16.626;2023-03-01T11:35:57;100122.19;;;8.09;43.44
75681;BME280;64294;49.176;16.626;2023-03-01T11:38:27;100113.22;;;8.37;40.84
75681;BME280;64294;49.176;16.626;2023-03-01T11:40:57;100110.28;;;8.91;39.83
75681;BME280;64294;49.176;16.626;2023-03-01T11:43:31;100108.28;;;9.64;39.41
75681;BME280;64294;49.176;16.626;2023-03-01T11:48:48;100103.50;;;10.50;37.28
75681;BME280;64294;49.176;16.626;2023-03-01T11:51:38;100099.03;;;10.72;36.58
75681;BME280;64294;49.176;16.626;2023-03-01T12:08:14;100077.81;;;10.71;36.15
75681;BME280;64294;49.176;16.626;2023-03-01T12:13:51;100074.63;;;10.50;37.88
75681;BME280;64294;49.176;16.626;2023-03-01T12:24:25;100045.81;;;11.69;34.91
75681;BME280;64294;49.176;16.626;2023-03-01T12:29:55;100048.31;;;11.78;36.14
75681;BME280;64294;49.176;16.626;2023-03-01T12:38:32;100038.63;;;16.75;28.05
75681;BME280;64294;49.176;16.626;2023-03-01T12:49:16;100030.75;;;17.88;24.95
75681;BME280;64294;49.176;16.626;2023-03-01T12:51:54;100017.84;;;16.95;25.55
75681;BME280;64294;49.176;16.626;2023-03-01T12:54:27;100022.41;;;17.29;24.83
75681;BME280;64294;49.176;16.626;2023-03-01T12:56:55;100017.47;;;17.21;24.41
75681;BME280;64294;49.176;16.626;2023-03-01T13:04:33;100013.22;;;14.91;26.56
75681;BME280;64294;49.176;16.626;2023-03-01T13:07:10;100008.88;;;14.56;28.91
75681;BME280;64294;49.176;16.626;2023-03-01T13:15:30;100009.69;;;13.24;30.27
75681;BME280;64294;49.176;16.626;2023-03-01T13:17:58;100021.00;;;12.35;30.88
75681;BME280;64294;49.176;16.626;2023-03-01T13:23:22;100009.72;;;12.35;33.29
75681;BME280;64294;49.176;16.626;2023-03-01T13:26:03;100007.34;;;11.77;31.11
75681;BME280;64294;49.176;16.626;2023-03-01T13:34:02;100004.56;;;10.93;34.75
75681;BME280;64294;49.176;16.626;2023-03-01T13:44:33;100018.97;;;10.84;32.79
75681;BME280;64294;49.176;16.626;2023-03-01T13:49:57;100007.94;;;10.50;34.76
75681;BME280;64294;49.176;16.626;2023-03-01T13:52:39;100010.31;;;9.60;36.28
75681;BME280;64294;49.176;16.626;2023-03-01T13:55:23;100015.44;;;9.67;36.26
75681;BME280;64294;49.176;16.626;2023-03-01T13:57:58;100010.53;;;9.79;35.50
75681;BME280;64294;49.176;16.626;2023-03-01T14:00:35;100016.13;;;9.79;34.96
75681;BME280;64294;49.176;16.626;2023-03-01T14:03:10;100013.44;;;9.29;36.19
75681;BME280;64294;49.176;16.626;2023-03-01T14:05:37;100012.53;;;9.90;36.29
75681;BME280;64294;49.176;16.626;2023-03-01T14:08:05;100010.75;;;10.50;34.73
75681;BME280;64294;49.176;16.626;2023-03-01T14:13:48;100013.22;;;10.65;34.59
75681;BME280;64294;49.176;16.626;2023-03-01T14:19:19;100007.59;;;10.59;34.71
75681;BME280;64294;49.176;16.626;2023-03-01T14:21:59;100006.06;;;10.58;34.92
75681;BME280;64294;49.176;16.626;2023-03-01T14:24:27;100003.81;;;9.99;33.81
75681;BME280;64294;49.176;16.626;2023-03-01T14:26:53;100006.25;;;10.30;33.41
75681;BME280;64294;49.176;16.626;2023-03-01T14:29:37;100000.53;;;10.47;34.19
75681;BME280;64294;49.176;16.626;2023-03-01T14:34:46;99993.22;;;9.64;35.98
75681;BME280;64294;49.176;16.626;2023-03-01T14:37:30;99994.31;;;10.24;35.71
75681;BME280;64294;49.176;16.626;2023-03-01T14:39:58;99995.69;;;9.84;36.75
75681;BME280;64294;49.176;16.626;2023-03-01T14:42:27;99987.25;;;9.95;36.31
75681;BME280;64294;49.176;16.626;2023-03-01T14:44:55;99986.94;;;10.10;37.14
75681;BME280;64294;49.176;16.626;2023-03-01T14:47:30;99996.47;;;9.90;37.54
75681;BME280;64294;49.176;16.626;2023-03-01T14:52:50;99984.09;;;10.16;38.26
75681;BME280;64294;49.176;16.626;2023-03-01T14:55:21;99995.88;;;10.09;36.66
75681;BME280;64294;49.176;16.626;2023-03-01T14:57:51;99984.84;;;9.41;37.19
75681;BME280;64294;49.176;16.626;2023-03-01T15:00:23;99995.63;;;9.04;38.48